sensor_id;sensor_type;location;lat;lon;timestamp;P1;durP1;ratioP1;P2;durP2;ratioP2
78368;SDS011;71113;43.092;-89.268;2023-08-20T00:01:06;5.50;;;2.13;;
78368;SDS011;71113;43.092;-89.268;2023-08-20T00:03:35;5.95;;;2.95;;
78368;SDS011;71113;43.092;-89.268;2023-08-20T00:06:02;6.63;;;3.10;;
78368;SDS011;71113;43.092;-89.268;2023-08-20T00:08:29;13.35;;;4.20;;
78368;SDS011;71113;43.092;-89.268;2023-08-20T00:10:55;9.63;;;4.18;;
78368;SDS011;71113;43.092;-89.268;2023-08-20T00:13:21;9.38;;;4.88;;
78368;SDS011;71113;43.092;-89.268;2023-08-20T00:15:47;12.07;;;4.80;;
78368;SDS011;71113;43.092;-89.268;2023-08-20T00:18:13;10.32;;;4.82;;
78368;SDS011;71113;43.092;-89.268;2023-08-20T00:20:40;13.38;;;5.43;;
78368;SDS011;71113;43.092;-89.268;2023-08-20T00:23:13;13.57;;;5.28;;
78368;SDS011;71113;43.092;-89.268;2023-08-20T00:25:40;13.23;;;5.32;;
78368;SDS011;71113;43.092;-89.268;2023-08-20T00:28:06;11.82;;;5.55;;
78368;SDS011;71113;43.092;-89.268;2023-08-20T00:30:32;11.07;;;5.18;;
78368;SDS011;71113;43.092;-89.268;2023-08-20T00:32:58;12.48;;;5.07;;
78368;SDS011;71113;43.092;-89.268;2023-08-20T00:35:24;12.52;;;5.30;;
78368;SDS011;71113;43.092;-89.268;2023-08-20T00:37:50;11.45;;;5.30;;
78368;SDS011;71113;43.092;-89.268;2023-08-20T00:40:15;10.05;;;4.93;;
78368;SDS011;71113;43.092;-89.268;2023-08-20T00:43:00;11.23;;;5.13;;
78368;SDS011;71113;43.092;-89.268;2023-08-20T00:45:26;12.05;;;5.00;;
78368;SDS011;71113;43.092;-89.268;2023-08-20T00:47:52;12.30;;;5.57;;
78368;SDS011;71113;43.092;-89.268;2023-08-20T00:50:19;11.10;;;5.07;;
78368;SDS011;71113;43.092;-89.268;2023-08-20T00:52:45;12.23;;;5.70;;
78368;SDS011;71113;43.092;-89.268;2023-08-20T00:55:12;10.32;;;4.85;;
78368;SDS011;71113;43.092;-89.268;2023-08-20T00:57:38;11.45;;;4.65;;
78368;SDS011;71113;43.092;-89.268;2023-08-20T01:00:05;10.85;;;5.03;;
78368;SDS011;71113;43.092;-89.268;2023-08-20T01:02:36;14.75;;;4.60;;
78368;SDS011;71113;43.092;-89.268;2023-08-20T01:05:03;9.98;;;4.32;;
78368;SDS011;71113;43.092;-89.268;2023-08-20T01:07:43;9.55;;;4.45;;
78368;SDS011;71113;43.092;-89.268;2023-08-20T01:10:25;11.50;;;4.55;;
78368;SDS011;71113;43.092;-89.268;2023-08-20T01:13:00;8.55;;;4.43;;
78368;SDS011;71113;43.092;-89.268;2023-08-20T01:15:27;9.57;;;4.22;;
78368;SDS011;71113;43.092;-89.268;2023-08-20T01:17:53;10.23;;;4.13;;
78368;SDS011;71113;43.092;-89.268;2023-08-20T01:20:19;8.10;;;3.47;;
78368;SDS011;71113;43.092;-89.268;2023-08-20T01:30:49;9.23;;;3.50;;
78368;SDS011;71113;43.092;-89.268;2023-08-20T01:33:15;10.07;;;4.15;;
78368;SDS011;71113;43.092;-89.268;2023-08-20T01:35:42;7.05;;;3.15;;
78368;SDS011;71113;43.092;-89.268;2023-08-20T01:38:08;9.32;;;3.97;;
78368;SDS011;71113;43.092;-89.268;2023-08-20T01:40:34;7.55;;;3.55;;
78368;SDS011;71113;43.092;-89.268;2023-08-20T01:43:00;8.32;;;3.63;;
78368;SDS011;71113;43.092;-89.268;2023-08-20T01:45:26;10.15;;;4.10;;
78368;SDS011;71113;43.092;-89.268;2023-08-20T01:47:52;11.85;;;3.70;;
78368;SDS011;71113;43.092;-89.268;2023-08-20T01:50:18;7.43;;;3.65;;
78368;SDS011;71113;43.092;-89.268;2023-08-20T01:52:44;11.07;;;4.03;;
78368;SDS011;71113;43.092;-89.268;2023-08-20T01:55:10;9.40;;;3.13;;
78368;SDS011;71113;43.092;-89.268;2023-08-20T01:57:36;10.38;;;3.60;;
78368;SDS011;71113;43.092;-89.268;2023-08-20T02:00:03;8.00;;;3.22;;
78368;SDS011;71113;43.092;-89.268;2023-08-20T02:02:30;7.15;;;3.15;;
78368;SDS011;71113;43.092;-89.268;2023-08-20T02:04:57;6.22;;;2.92;;
78368;SDS011;71113;43.092;-89.268;2023-08-20T02:07:23;8.88;;;3.08;;
78368;SDS011;71113;43.092;-89.268;2023-08-20T02:09:49;8.90;;;3.05;;
78368;SDS011;71113;43.092;-89.268;2023-08-20T02:12:15;8.00;;;2.67;;
78368;SDS011;71113;43.092;-89.268;2023-08-20T02:14:40;7.00;;;2.80;;
78368;SDS011;71113;43.092;-89.268;2023-08-20T02:17:06;6.38;;;2.70;;
78368;SDS011;71113;43.092;-89.268;2023-08-20T02:19:33;5.78;;;2.80;;
78368;SDS011;71113;43.092;-89.268;2023-08-20T02:21:59;8.88;;;2.63;;
78368;SDS011;71113;43.092;-89.268;2023-08-20T02:24:25;6.00;;;3.17;;
78368;SDS011;71113;43.092;-89.268;2023-08-20T02:26:51;7.97;;;3.70;;
78368;SDS011;71113;43.092;-89.268;2023-08-20T02:29:17;10.43;;;5.10;;
78368;SDS011;71113;43.092;-89.268;2023-08-20T02:31:43;9.45;;;5.78;;
78368;SDS011;71113;43.092;-89.268;2023-08-20T02:34:08;12.70;;;6.65;;
78368;SDS011;71113;43.092;-89.268;2023-08-20T02:36:34;16.10;;;8.30;;
78368;SDS011;71113;43.092;-89.268;2023-08-20T02:39:00;18.48;;;10.20;;
78368;SDS011;71113;43.092;-89.268;2023-08-20T02:41:26;21.17;;;11.85;;
78368;SDS011;71113;43.092;-89.268;2023-08-20T02:43:52;19.95;;;11.57;;
78368;SDS011;71113;43.092;-89.268;2023-08-20T02:46:18;21.20;;;12.43;;
78368;SDS011;71113;43.092;-89.268;2023-08-20T02:48:44;21.02;;;12.75;;
78368;SDS011;71113;43.092;-89.268;2023-08-20T02:51:10;26.65;;;14.95;;
78368;SDS011;71113;43.092;-89.268;2023-08-20T02:53:35;26.65;;;16.88;;
78368;SDS011;71113;43.092;-89.268;2023-08-20T02:56:01;26.80;;;16.02;;
78368;SDS011;71113;43.092;-89.268;2023-08-20T02:58:28;29.80;;;17.70;;
78368;SDS011;71113;43.092;-89.268;2023-08-20T03:00:54;30.98;;;18.80;;
78368;SDS011;71113;43.092;-89.268;2023-08-20T03:03:20;35.10;;;19.40;;
78368;SDS011;71113;43.092;-89.268;2023-08-20T03:05:46;35.15;;;19.48;;
78368;SDS011;71113;43.092;-89.268;2023-08-20T03:08:12;35.47;;;22.30;;
78368;SDS011;71113;43.092;-89.268;2023-08-20T03:10:38;39.80;;;23.42;;
78368;SDS011;71113;43.092;-89.268;2023-08-20T03:13:04;41.78;;;24.48;;
78368;SDS011;71113;43.092;-89.268;2023-08-20T03:15:30;41.53;;;24.13;;
78368;SDS011;71113;43.092;-89.268;2023-08-20T03:17:56;41.78;;;24.48;;
78368;SDS011;71113;43.092;-89.268;2023-08-20T03:20:22;43.90;;;26.13;;
78368;SDS011;71113;43.092;-89.268;2023-08-20T03:22:48;40.10;;;23.95;;
78368;SDS011;71113;43.092;-89.268;2023-08-20T03:25:14;43.17;;;25.40;;
78368;SDS011;71113;43.092;-89.268;2023-08-20T03:27:41;44.08;;;25.90;;
78368;SDS011;71113;43.092;-89.268;2023-08-20T03:30:07;44.30;;;26.67;;
78368;SDS011;71113;43.092;-89.268;2023-08-20T03:32:33;42.15;;;25.35;;
78368;SDS011;71113;43.092;-89.268;2023-08-20T03:37:44;36.20;;;24.15;;
78368;SDS011;71113;43.092;-89.268;2023-08-20T03:40:10;41.50;;;26.33;;
78368;SDS011;71113;43.092;-89.268;2023-08-20T03:42:36;45.58;;;25.80;;
78368;SDS011;71113;43.092;-89.268;2023-08-20T03:45:02;45.10;;;25.60;;
78368;SDS011;71113;43.092;-89.268;2023-08-20T03:47:28;45.55;;;26.52;;
78368;SDS011;71113;43.092;-89.268;2023-08-20T03:49:54;45.17;;;26.85;;
78368;SDS011;71113;43.092;-89.268;2023-08-20T03:52:20;45.92;;;28.35;;
78368;SDS011;71113;43.092;-89.268;2023-08-20T03:54:46;43.95;;;27.50;;
78368;SDS011;71113;43.092;-89.268;2023-08-20T03:57:12;48.05;;;28.65;;
78368;SDS011;71113;43.092;-89.268;2023-08-20T03:59:37;53.38;;;31.17;;
78368;SDS011;71113;43.092;-89.268;2023-08-20T04:02:03;56.85;;;33.75;;
78368;SDS011;71113;43.092;-89.268;2023-08-20T04:04:29;53.63;;;32.85;;
78368;SDS011;71113;43.092;-89.268;2023-08-20T04:06:56;53.33;;;33.60;;
78368;SDS011;71113;43.092;-89.268;2023-08-20T04:09:22;52.92;;;33.47;;
78368;SDS011;71113;43.092;-89.268;2023-08-20T04:11:48;49.22;;;29.52;;
78368;SDS011;71113;43.092;-89.268;2023-08-20T04:14:14;47.90;;;30.92;;
78368;SDS011;71113;43.092;-89.268;2023-08-20T04:16:41;52.85;;;33.15;;
78368;SDS011;71113;43.092;-89.268;2023-08-20T04:19:07;53.38;;;32.15;;
78368;SDS011;71113;43.092;-89.268;2023-08-20T04:21:33;53.35;;;32.42;;
78368;SDS011;71113;43.092;-89.268;2023-08-20T04:24:00;49.22;;;31.08;;
78368;SDS011;71113;43.092;-89.268;2023-08-20T04:26:25;50.45;;;31.85;;
78368;SDS011;71113;43.092;-89.268;2023-08-20T04:28:52;53.95;;;32.97;;
78368;SDS011;71113;43.092;-89.268;2023-08-20T04:31:18;63.90;;;39.05;;
78368;SDS011;71113;43.092;-89.268;2023-08-20T04:33:45;68.60;;;42.00;;
78368;SDS011;71113;43.092;-89.268;2023-08-20T04:36:11;66.70;;;40.65;;
78368;SDS011;71113;43.092;-89.268;2023-08-20T04:38:37;63.22;;;39.50;;
78368;SDS011;71113;43.092;-89.268;2023-08-20T04:41:03;61.10;;;35.90;;
78368;SDS011;71113;43.092;-89.268;2023-08-20T04:43:29;56.63;;;35.47;;
78368;SDS011;71113;43.092;-89.268;2023-08-20T04:45:57;58.08;;;34.90;;
78368;SDS011;71113;43.092;-89.268;2023-08-20T04:48:23;57.17;;;35.95;;
78368;SDS011;71113;43.092;-89.268;2023-08-20T04:50:48;56.78;;;34.65;;
78368;SDS011;71113;43.092;-89.268;2023-08-20T04:53:14;56.42;;;35.97;;
78368;SDS011;71113;43.092;-89.268;2023-08-20T04:55:40;57.95;;;36.20;;
78368;SDS011;71113;43.092;-89.268;2023-08-20T04:58:06;55.22;;;35.80;;
78368;SDS011;71113;43.092;-89.268;2023-08-20T05:00:32;68.82;;;44.25;;
78368;SDS011;71113;43.092;-89.268;2023-08-20T05:02:58;78.88;;;51.10;;
78368;SDS011;71113;43.092;-89.268;2023-08-20T05:05:24;81.00;;;50.53;;
78368;SDS011;71113;43.092;-89.268;2023-08-20T05:07:50;76.53;;;49.92;;
78368;SDS011;71113;43.092;-89.268;2023-08-20T05:10:16;71.13;;;44.72;;
78368;SDS011;71113;43.092;-89.268;2023-08-20T05:12:42;68.95;;;44.35;;
78368;SDS011;71113;43.092;-89.268;2023-08-20T05:15:07;67.97;;;44.83;;
78368;SDS011;71113;43.092;-89.268;2023-08-20T05:17:34;64.63;;;42.85;;
78368;SDS011;71113;43.092;-89.268;2023-08-20T05:19:59;62.15;;;41.53;;
78368;SDS011;71113;43.092;-89.268;2023-08-20T05:22:25;61.97;;;40.40;;
78368;SDS011;71113;43.092;-89.268;2023-08-20T05:24:51;61.40;;;39.72;;
78368;SDS011;71113;43.092;-89.268;2023-08-20T05:27:17;66.47;;;40.97;;
78368;SDS011;71113;43.092;-89.268;2023-08-20T05:29:43;75.43;;;50.50;;
78368;SDS011;71113;43.092;-89.268;2023-08-20T05:32:09;93.55;;;59.10;;
78368;SDS011;71113;43.092;-89.268;2023-08-20T05:34:35;90.78;;;58.60;;
78368;SDS011;71113;43.092;-89.268;2023-08-20T05:37:01;85.32;;;55.40;;
78368;SDS011;71113;43.092;-89.268;2023-08-20T05:39:29;83.70;;;54.08;;
78368;SDS011;71113;43.092;-89.268;2023-08-20T05:41:55;85.63;;;54.22;;
78368;SDS011;71113;43.092;-89.268;2023-08-20T05:44:21;77.90;;;52.85;;
78368;SDS011;71113;43.092;-89.268;2023-08-20T05:46:47;78.80;;;52.63;;
78368;SDS011;71113;43.092;-89.268;2023-08-20T05:49:14;77.05;;;50.92;;
78368;SDS011;71113;43.092;-89.268;2023-08-20T05:51:43;74.18;;;51.83;;
78368;SDS011;71113;43.092;-89.268;2023-08-20T05:54:09;84.53;;;54.40;;
78368;SDS011;71113;43.092;-89.268;2023-08-20T05:56:36;79.28;;;50.25;;
78368;SDS011;71113;43.092;-89.268;2023-08-20T05:59:02;87.05;;;55.33;;
78368;SDS011;71113;43.092;-89.268;2023-08-20T06:01:28;107.55;;;69.10;;
78368;SDS011;71113;43.092;-89.268;2023-08-20T06:03:54;112.80;;;75.15;;
78368;SDS011;71113;43.092;-89.268;2023-08-20T06:06:20;105.45;;;68.20;;
78368;SDS011;71113;43.092;-89.268;2023-08-20T06:08:46;97.20;;;64.78;;
78368;SDS011;71113;43.092;-89.268;2023-08-20T06:11:13;107.90;;;68.97;;
78368;SDS011;71113;43.092;-89.268;2023-08-20T06:13:38;94.03;;;61.92;;
78368;SDS011;71113;43.092;-89.268;2023-08-20T06:16:04;99.60;;;65.88;;
78368;SDS011;71113;43.092;-89.268;2023-08-20T06:18:32;95.97;;;62.72;;
78368;SDS011;71113;43.092;-89.268;2023-08-20T06:20:58;87.63;;;58.28;;
78368;SDS011;71113;43.092;-89.268;2023-08-20T06:23:24;85.63;;;58.28;;
78368;SDS011;71113;43.092;-89.268;2023-08-20T06:25:50;91.55;;;58.58;;
78368;SDS011;71113;43.092;-89.268;2023-08-20T06:28:16;88.68;;;57.95;;
78368;SDS011;71113;43.092;-89.268;2023-08-20T06:30:44;118.45;;;78.53;;
78368;SDS011;71113;43.092;-89.268;2023-08-20T06:33:10;124.85;;;80.78;;
78368;SDS011;71113;43.092;-89.268;2023-08-20T06:35:37;122.07;;;81.53;;
78368;SDS011;71113;43.092;-89.268;2023-08-20T06:38:03;109.20;;;73.75;;
78368;SDS011;71113;43.092;-89.268;2023-08-20T06:40:29;113.65;;;72.65;;
78368;SDS011;71113;43.092;-89.268;2023-08-20T06:42:55;106.93;;;70.32;;
78368;SDS011;71113;43.092;-89.268;2023-08-20T06:45:21;102.68;;;66.65;;
78368;SDS011;71113;43.092;-89.268;2023-08-20T06:47:47;103.18;;;70.05;;
78368;SDS011;71113;43.092;-89.268;2023-08-20T06:50:13;106.07;;;67.93;;
78368;SDS011;71113;43.092;-89.268;2023-08-20T06:52:39;99.07;;;65.20;;
78368;SDS011;71113;43.092;-89.268;2023-08-20T06:55:05;102.03;;;65.18;;
78368;SDS011;71113;43.092;-89.268;2023-08-20T06:57:31;96.13;;;63.22;;
78368;SDS011;71113;43.092;-89.268;2023-08-20T06:59:57;119.80;;;80.50;;
78368;SDS011;71113;43.092;-89.268;2023-08-20T07:02:23;155.57;;;100.25;;
78368;SDS011;71113;43.092;-89.268;2023-08-20T07:04:49;137.80;;;93.63;;
78368;SDS011;71113;43.092;-89.268;2023-08-20T07:07:15;133.98;;;86.35;;
78368;SDS011;71113;43.092;-89.268;2023-08-20T07:09:41;129.85;;;84.97;;
78368;SDS011;71113;43.092;-89.268;2023-08-20T07:12:07;132.98;;;88.78;;
78368;SDS011;71113;43.092;-89.268;2023-08-20T07:14:33;124.10;;;80.82;;
78368;SDS011;71113;43.092;-89.268;2023-08-20T07:16:59;119.93;;;78.43;;
78368;SDS011;71113;43.092;-89.268;2023-08-20T07:19:25;111.15;;;72.80;;
78368;SDS011;71113;43.092;-89.268;2023-08-20T07:21:51;109.43;;;70.68;;
78368;SDS011;71113;43.092;-89.268;2023-08-20T07:24:17;106.90;;;72.63;;
78368;SDS011;71113;43.092;-89.268;2023-08-20T07:26:43;108.35;;;70.20;;
78368;SDS011;71113;43.092;-89.268;2023-08-20T07:29:09;124.75;;;84.75;;
78368;SDS011;71113;43.092;-89.268;2023-08-20T07:31:35;157.32;;;104.25;;
78368;SDS011;71113;43.092;-89.268;2023-08-20T07:34:01;162.07;;;101.60;;
78368;SDS011;71113;43.092;-89.268;2023-08-20T07:36:28;145.32;;;93.97;;
78368;SDS011;71113;43.092;-89.268;2023-08-20T07:38:54;140.57;;;95.53;;
78368;SDS011;71113;43.092;-89.268;2023-08-20T07:41:21;138.43;;;90.97;;
78368;SDS011;71113;43.092;-89.268;2023-08-20T07:43:47;132.80;;;85.43;;
78368;SDS011;71113;43.092;-89.268;2023-08-20T07:46:14;132.32;;;83.38;;
78368;SDS011;71113;43.092;-89.268;2023-08-20T07:48:41;126.90;;;83.32;;
78368;SDS011;71113;43.092;-89.268;2023-08-20T07:51:07;109.28;;;72.90;;
78368;SDS011;71113;43.092;-89.268;2023-08-20T07:53:33;116.93;;;75.47;;
78368;SDS011;71113;43.092;-89.268;2023-08-20T07:55:59;109.38;;;73.00;;
78368;SDS011;71113;43.092;-89.268;2023-08-20T07:58:26;118.65;;;77.18;;
78368;SDS011;71113;43.092;-89.268;2023-08-20T08:00:53;166.40;;;105.40;;
78368;SDS011;71113;43.092;-89.268;2023-08-20T08:03:20;171.68;;;109.20;;
78368;SDS011;71113;43.092;-89.268;2023-08-20T08:05:46;160.98;;;101.22;;
78368;SDS011;71113;43.092;-89.268;2023-08-20T08:08:13;147.65;;;94.97;;
78368;SDS011;71113;43.092;-89.268;2023-08-20T08:10:40;142.98;;;93.80;;
78368;SDS011;71113;43.092;-89.268;2023-08-20T08:13:09;142.13;;;92.50;;
78368;SDS011;71113;43.092;-89.268;2023-08-20T08:15:36;139.00;;;86.45;;
78368;SDS011;71113;43.092;-89.268;2023-08-20T08:18:02;122.43;;;83.10;;
78368;SDS011;71113;43.092;-89.268;2023-08-20T08:20:28;127.05;;;82.35;;
78368;SDS011;71113;43.092;-89.268;2023-08-20T08:22:54;127.15;;;78.97;;
78368;SDS011;71113;43.092;-89.268;2023-08-20T08:25:20;116.82;;;75.95;;
78368;SDS011;71113;43.092;-89.268;2023-08-20T08:27:46;129.10;;;79.45;;
78368;SDS011;71113;43.092;-89.268;2023-08-20T08:30:12;165.45;;;105.78;;
78368;SDS011;71113;43.092;-89.268;2023-08-20T08:32:39;196.77;;;122.30;;
78368;SDS011;71113;43.092;-89.268;2023-08-20T08:35:05;166.88;;;106.18;;
78368;SDS011;71113;43.092;-89.268;2023-08-20T08:37:32;157.52;;;98.82;;
78368;SDS011;71113;43.092;-89.268;2023-08-20T08:39:58;152.77;;;98.65;;
78368;SDS011;71113;43.092;-89.268;2023-08-20T08:42:24;146.73;;;95.07;;
78368;SDS011;71113;43.092;-89.268;2023-08-20T08:44:57;144.48;;;93.45;;
78368;SDS011;71113;43.092;-89.268;2023-08-20T08:47:31;141.23;;;89.25;;
78368;SDS011;71113;43.092;-89.268;2023-08-20T08:49:58;138.32;;;87.75;;
78368;SDS011;71113;43.092;-89.268;2023-08-20T08:52:25;128.00;;;84.28;;
78368;SDS011;71113;43.092;-89.268;2023-08-20T08:54:52;128.15;;;80.60;;
78368;SDS011;71113;43.092;-89.268;2023-08-20T08:57:18;128.40;;;84.85;;
78368;SDS011;71113;43.092;-89.268;2023-08-20T08:59:44;163.88;;;104.28;;
78368;SDS011;71113;43.092;-89.268;2023-08-20T09:02:11;205.32;;;126.45;;
78368;SDS011;71113;43.092;-89.268;2023-08-20T09:04:41;186.75;;;117.65;;
78368;SDS011;71113;43.092;-89.268;2023-08-20T09:07:11;163.60;;;104.93;;
78368;SDS011;71113;43.092;-89.268;2023-08-20T09:12:13;153.63;;;95.80;;
78368;SDS011;71113;43.092;-89.268;2023-08-20T09:14:50;143.18;;;91.03;;
78368;SDS011;71113;43.092;-89.268;2023-08-20T09:17:17;146.02;;;92.80;;
78368;SDS011;71113;43.092;-89.268;2023-08-20T09:19:46;142.13;;;91.78;;
78368;SDS011;71113;43.092;-89.268;2023-08-20T09:22:12;132.70;;;85.57;;
78368;SDS011;71113;43.092;-89.268;2023-08-20T09:24:40;128.15;;;81.75;;
78368;SDS011;71113;43.092;-89.268;2023-08-20T09:27:11;131.70;;;83.80;;
78368;SDS011;71113;43.092;-89.268;2023-08-20T09:29:47;168.00;;;107.13;;
78368;SDS011;71113;43.092;-89.268;2023-08-20T09:32:17;203.95;;;126.35;;
78368;SDS011;71113;43.092;-89.268;2023-08-20T09:34:44;191.60;;;119.10;;
78368;SDS011;71113;43.092;-89.268;2023-08-20T09:37:12;183.50;;;113.10;;
78368;SDS011;71113;43.092;-89.268;2023-08-20T09:39:39;164.57;;;104.95;;
78368;SDS011;71113;43.092;-89.268;2023-08-20T09:42:06;160.43;;;102.75;;
78368;SDS011;71113;43.092;-89.268;2023-08-20T09:44:34;157.48;;;97.50;;
78368;SDS011;71113;43.092;-89.268;2023-08-20T09:47:10;150.48;;;97.18;;
78368;SDS011;71113;43.092;-89.268;2023-08-20T09:52:06;142.10;;;93.30;;
78368;SDS011;71113;43.092;-89.268;2023-08-20T09:57:22;198.10;;;121.68;;
78368;SDS011;71113;43.092;-89.268;2023-08-20T09:59:53;237.00;;;140.75;;
78368;SDS011;71113;43.092;-89.268;2023-08-20T10:02:19;248.75;;;143.50;;
78368;SDS011;71113;43.092;-89.268;2023-08-20T10:04:45;246.25;;;149.70;;
78368;SDS011;71113;43.092;-89.268;2023-08-20T10:07:11;238.95;;;146.52;;
78368;SDS011;71113;43.092;-89.268;2023-08-20T10:09:40;259.00;;;156.77;;
78368;SDS011;71113;43.092;-89.268;2023-08-20T10:12:12;249.65;;;148.85;;
78368;SDS011;71113;43.092;-89.268;2023-08-20T10:14:39;222.88;;;137.43;;
78368;SDS011;71113;43.092;-89.268;2023-08-20T10:17:06;202.07;;;124.32;;
78368;SDS011;71113;43.092;-89.268;2023-08-20T10:19:33;186.13;;;114.43;;
78368;SDS011;71113;43.092;-89.268;2023-08-20T10:22:01;169.75;;;108.38;;
78368;SDS011;71113;43.092;-89.268;2023-08-20T10:24:28;165.98;;;108.18;;
78368;SDS011;71113;43.092;-89.268;2023-08-20T10:27:09;163.27;;;104.90;;
78368;SDS011;71113;43.092;-89.268;2023-08-20T10:29:39;158.00;;;100.00;;
78368;SDS011;71113;43.092;-89.268;2023-08-20T10:32:11;148.73;;;97.57;;
78368;SDS011;71113;43.092;-89.268;2023-08-20T10:34:39;143.02;;;93.03;;
78368;SDS011;71113;43.092;-89.268;2023-08-20T10:37:13;139.82;;;89.45;;
78368;SDS011;71113;43.092;-89.268;2023-08-20T10:39:39;132.98;;;85.68;;
78368;SDS011;71113;43.092;-89.268;2023-08-20T10:44:56;127.95;;;81.00;;
78368;SDS011;71113;43.092;-89.268;2023-08-20T10:47:23;124.07;;;79.22;;
78368;SDS011;71113;43.092;-89.268;2023-08-20T10:49:53;118.65;;;76.68;;
78368;SDS011;71113;43.092;-89.268;2023-08-20T10:52:20;121.57;;;75.78;;
78368;SDS011;71113;43.092;-89.268;2023-08-20T10:54:51;120.80;;;78.25;;
78368;SDS011;71113;43.092;-89.268;2023-08-20T10:57:18;116.53;;;77.00;;
78368;SDS011;71113;43.092;-89.268;2023-08-20T10:59:57;154.10;;;98.60;;
78368;SDS011;71113;43.092;-89.268;2023-08-20T11:02:25;200.77;;;118.78;;
78368;SDS011;71113;43.092;-89.268;2023-08-20T11:04:53;167.88;;;105.35;;
78368;SDS011;71113;43.092;-89.268;2023-08-20T11:07:19;156.45;;;98.75;;
78368;SDS011;71113;43.092;-89.268;2023-08-20T11:09:45;155.85;;;97.68;;
78368;SDS011;71113;43.092;-89.268;2023-08-20T11:12:16;149.02;;;93.00;;
78368;SDS011;71113;43.092;-89.268;2023-08-20T11:14:44;144.10;;;87.95;;
78368;SDS011;71113;43.092;-89.268;2023-08-20T11:17:11;128.80;;;84.40;;
78368;SDS011;71113;43.092;-89.268;2023-08-20T11:19:37;128.55;;;83.40;;
78368;SDS011;71113;43.092;-89.268;2023-08-20T11:22:03;124.18;;;82.85;;
78368;SDS011;71113;43.092;-89.268;2023-08-20T11:24:29;117.53;;;75.25;;
78368;SDS011;71113;43.092;-89.268;2023-08-20T11:26:55;117.00;;;77.78;;
78368;SDS011;71113;43.092;-89.268;2023-08-20T11:29:21;148.93;;;93.75;;
78368;SDS011;71113;43.092;-89.268;2023-08-20T11:31:47;191.52;;;120.22;;
78368;SDS011;71113;43.092;-89.268;2023-08-20T11:34:14;195.50;;;120.00;;
78368;SDS011;71113;43.092;-89.268;2023-08-20T11:36:41;180.95;;;111.10;;
78368;SDS011;71113;43.092;-89.268;2023-08-20T11:39:07;169.13;;;107.13;;
78368;SDS011;71113;43.092;-89.268;2023-08-20T11:41:37;159.23;;;100.47;;
78368;SDS011;71113;43.092;-89.268;2023-08-20T11:44:04;157.95;;;96.10;;
78368;SDS011;71113;43.092;-89.268;2023-08-20T11:46:31;147.07;;;92.80;;
78368;SDS011;71113;43.092;-89.268;2023-08-20T11:51:26;136.57;;;87.55;;
78368;SDS011;71113;43.092;-89.268;2023-08-20T11:53:52;148.27;;;93.00;;
78368;SDS011;71113;43.092;-89.268;2023-08-20T11:56:18;189.73;;;112.40;;
78368;SDS011;71113;43.092;-89.268;2023-08-20T11:58:49;243.27;;;149.32;;
78368;SDS011;71113;43.092;-89.268;2023-08-20T12:01:17;261.75;;;157.02;;
78368;SDS011;71113;43.092;-89.268;2023-08-20T12:03:45;246.50;;;145.85;;
78368;SDS011;71113;43.092;-89.268;2023-08-20T12:06:18;245.93;;;143.50;;
78368;SDS011;71113;43.092;-89.268;2023-08-20T12:08:45;229.73;;;139.18;;
78368;SDS011;71113;43.092;-89.268;2023-08-20T12:11:12;230.13;;;140.48;;
78368;SDS011;71113;43.092;-89.268;2023-08-20T12:13:38;232.02;;;143.13;;
78368;SDS011;71113;43.092;-89.268;2023-08-20T12:16:04;217.38;;;137.68;;
78368;SDS011;71113;43.092;-89.268;2023-08-20T12:18:30;235.82;;;143.45;;
78368;SDS011;71113;43.092;-89.268;2023-08-20T12:20:56;239.38;;;145.73;;
78368;SDS011;71113;43.092;-89.268;2023-08-20T12:23:22;224.00;;;139.20;;
78368;SDS011;71113;43.092;-89.268;2023-08-20T12:25:51;232.32;;;143.35;;
78368;SDS011;71113;43.092;-89.268;2023-08-20T12:28:17;228.55;;;142.52;;
78368;SDS011;71113;43.092;-89.268;2023-08-20T12:30:43;219.23;;;136.15;;
78368;SDS011;71113;43.092;-89.268;2023-08-20T12:33:11;209.25;;;129.93;;
78368;SDS011;71113;43.092;-89.268;2023-08-20T12:35:37;202.50;;;124.25;;
78368;SDS011;71113;43.092;-89.268;2023-08-20T12:38:03;199.93;;;124.47;;
78368;SDS011;71113;43.092;-89.268;2023-08-20T12:40:29;205.65;;;129.23;;
78368;SDS011;71113;43.092;-89.268;2023-08-20T12:42:56;181.30;;;117.20;;
78368;SDS011;71113;43.092;-89.268;2023-08-20T12:45:22;186.10;;;119.55;;
78368;SDS011;71113;43.092;-89.268;2023-08-20T12:47:47;178.10;;;112.75;;
78368;SDS011;71113;43.092;-89.268;2023-08-20T12:50:13;162.60;;;108.25;;
78368;SDS011;71113;43.092;-89.268;2023-08-20T12:52:40;145.77;;;100.43;;
78368;SDS011;71113;43.092;-89.268;2023-08-20T12:55:06;154.88;;;101.95;;
78368;SDS011;71113;43.092;-89.268;2023-08-20T12:57:35;141.88;;;97.00;;
78368;SDS011;71113;43.092;-89.268;2023-08-20T13:00:02;135.43;;;91.75;;
78368;SDS011;71113;43.092;-89.268;2023-08-20T13:02:36;133.50;;;90.15;;
78368;SDS011;71113;43.092;-89.268;2023-08-20T13:05:02;124.45;;;83.57;;
78368;SDS011;71113;43.092;-89.268;2023-08-20T13:07:30;119.55;;;80.05;;
78368;SDS011;71113;43.092;-89.268;2023-08-20T13:09:56;112.05;;;74.38;;
78368;SDS011;71113;43.092;-89.268;2023-08-20T13:12:22;109.07;;;75.57;;
78368;SDS011;71113;43.092;-89.268;2023-08-20T13:14:53;100.72;;;69.03;;
78368;SDS011;71113;43.092;-89.268;2023-08-20T13:17:19;98.13;;;68.88;;
78368;SDS011;71113;43.092;-89.268;2023-08-20T13:19:45;96.60;;;67.32;;
78368;SDS011;71113;43.092;-89.268;2023-08-20T13:22:12;92.75;;;63.47;;
78368;SDS011;71113;43.092;-89.268;2023-08-20T13:24:39;85.78;;;59.08;;
78368;SDS011;71113;43.092;-89.268;2023-08-20T13:27:05;85.78;;;59.13;;
78368;SDS011;71113;43.092;-89.268;2023-08-20T13:29:31;81.82;;;56.97;;
78368;SDS011;71113;43.092;-89.268;2023-08-20T13:31:57;76.40;;;53.95;;
78368;SDS011;71113;43.092;-89.268;2023-08-20T13:34:23;74.80;;;52.35;;
78368;SDS011;71113;43.092;-89.268;2023-08-20T13:36:49;68.65;;;49.40;;
78368;SDS011;71113;43.092;-89.268;2023-08-20T13:39:25;64.95;;;48.33;;
78368;SDS011;71113;43.092;-89.268;2023-08-20T13:41:51;61.67;;;43.38;;
78368;SDS011;71113;43.092;-89.268;2023-08-20T13:44:23;63.13;;;44.70;;
78368;SDS011;71113;43.092;-89.268;2023-08-20T13:46:56;59.28;;;42.17;;
78368;SDS011;71113;43.092;-89.268;2023-08-20T13:49:22;56.15;;;41.00;;
78368;SDS011;71113;43.092;-89.268;2023-08-20T13:51:48;52.70;;;39.55;;
78368;SDS011;71113;43.092;-89.268;2023-08-20T13:54:14;48.72;;;34.88;;
78368;SDS011;71113;43.092;-89.268;2023-08-20T13:56:40;47.97;;;35.78;;
78368;SDS011;71113;43.092;-89.268;2023-08-20T13:59:06;49.90;;;36.15;;
78368;SDS011;71113;43.092;-89.268;2023-08-20T14:01:34;46.30;;;35.53;;
78368;SDS011;71113;43.092;-89.268;2023-08-20T14:04:21;43.83;;;32.85;;
78368;SDS011;71113;43.092;-89.268;2023-08-20T14:06:47;45.08;;;34.17;;
78368;SDS011;71113;43.092;-89.268;2023-08-20T14:09:14;41.53;;;31.75;;
78368;SDS011;71113;43.092;-89.268;2023-08-20T14:11:42;42.50;;;31.67;;
78368;SDS011;71113;43.092;-89.268;2023-08-20T14:14:08;41.08;;;29.80;;